Mallard, Iowa
Current Conditions -  °F | °C
As of 2:15 PM on Saturday 20 Dec 2014 (Local Time) from KAXA Reporting Station
Haze Haze  
Wind Chill: 24°   Ceiling: 800
Heat Index: 32°   Visibility: 6mi
Dew Point: 30°   Wind: 9mph
Humidity: 93%   Direction: 170°S
Pressure: 30.09"   Gusts: NA
Location:  42.94°N, 94.68°W
Report Text: KAXA 202015Z AUTO 17008KT 6SM BR BKN008 00/M01 A3009 RMK AO2
Loading
Personal Weather Stations






























Interactive Weather Map New forecast layout! Learn more

10-Day Weather Forecast

Advertisements
Track Severe Weather on mobile